Time;durP1;ratioP1;P1;durP2;ratioP2;P2;SDS_P1;SDS_P2;PMS_P1;PMS_P2;Temp;Humidity;BMP_temperature;BMP_pressure;BME280_temperature;BME280_humidity;BME280_pressure;Samples;Min_cycle;Max_cycle;Signal;HPM_P1;HPM_P2
2022/11/22 00:00:40;;;;;;;1.90;0.93;;;;;;;;;;4865804;29;20045;-61
2022/11/22 00:03:07;;;;;;;0.98;0.80;;;;;;;;;;4865866;29;20045;-60
2022/11/22 00:05:33;;;;;;;0.82;0.77;;;;;;;;;;4866011;29;20097;-60
2022/11/22 00:08:00;;;;;;;1.23;0.90;;;;;;;;;;4865263;29;20538;-60
2022/11/22 00:10:26;;;;;;;1.27;0.90;;;;;;;;;;4865735;29;20049;-60
2022/11/22 00:12:53;;;;;;;1.13;0.90;;;;;;;;;;4865593;29;20414;-60
2022/11/22 00:15:19;;;;;;;1.55;0.90;;;;;;;;;;4865516;29;20105;-61
2022/11/22 00:17:45;;;;;;;0.93;0.90;;;;;;;;;;4864987;29;20078;-60
2022/11/22 00:20:13;;;;;;;1.77;1.20;;;;;;;;;;4865643;29;20045;-60
2022/11/22 00:22:39;;;;;;;1.20;1.10;;;;;;;;;;4865678;29;20078;-61
2022/11/22 00:25:10;;;;;;;1.48;1.20;;;;;;;;;;4865682;29;20062;-61
2022/11/22 00:27:37;;;;;;;1.50;0.93;;;;;;;;;;4865342;29;20053;-61
2022/11/22 00:30:04;;;;;;;1.17;1.00;;;;;;;;;;4866486;29;20045;-60
2022/11/22 00:32:30;;;;;;;3.05;1.20;;;;;;;;;;4879904;29;20049;-60
2022/11/22 00:34:56;;;;;;;0.77;0.77;;;;;;;;;;4865713;29;20496;-60
2022/11/22 00:37:23;;;;;;;1.40;0.95;;;;;;;;;;4865183;29;20045;-60
2022/11/22 00:39:49;;;;;;;1.25;1.10;;;;;;;;;;4865516;29;20102;-61
2022/11/22 00:42:16;;;;;;;3.47;1.33;;;;;;;;;;4865551;29;20102;-60
2022/11/22 00:44:42;;;;;;;2.90;1.50;;;;;;;;;;4864219;29;20053;-60
2022/11/22 00:47:09;;;;;;;3.22;1.70;;;;;;;;;;4865390;29;20495;-60
2022/11/22 00:49:35;;;;;;;4.03;1.80;;;;;;;;;;4864883;29;20456;-60
2022/11/22 00:52:01;;;;;;;5.20;1.77;;;;;;;;;;4865669;29;20098;-60
2022/11/22 00:54:28;;;;;;;2.88;1.90;;;;;;;;;;4865310;29;20041;-60
2022/11/22 00:56:54;;;;;;;5.20;2.30;;;;;;;;;;4865371;29;20081;-60
2022/11/22 00:59:20;;;;;;;4.40;1.75;;;;;;;;;;4864943;29;20053;-60
2022/11/22 01:01:47;;;;;;;1.67;1.40;;;;;;;;;;4865323;29;20329;-60
2022/11/22 01:04:13;;;;;;;4.50;1.65;;;;;;;;;;4864587;29;20038;-60
2022/11/22 01:06:39;;;;;;;4.63;1.50;;;;;;;;;;4862314;29;20114;-61
2022/11/22 01:09:06;;;;;;;3.75;1.90;;;;;;;;;;4862173;29;20064;-60
2022/11/22 01:11:32;;;;;;;7.78;2.03;;;;;;;;;;4861369;29;20037;-61
2022/11/22 01:13:59;;;;;;;9.07;2.60;;;;;;;;;;4861310;29;20053;-61
2022/11/22 01:16:26;;;;;;;7.60;2.30;;;;;;;;;;4861342;29;20049;-61
2022/11/22 01:18:52;;;;;;;8.45;2.05;;;;;;;;;;4861862;29;20037;-61
2022/11/22 01:21:18;;;;;;;8.68;2.17;;;;;;;;;;4861171;29;20066;-61
2022/11/22 01:23:45;;;;;;;11.93;2.35;;;;;;;;;;4862296;29;20050;-61
2022/11/22 01:26:11;;;;;;;8.68;2.50;;;;;;;;;;4862141;29;20423;-60
2022/11/22 01:28:37;;;;;;;5.93;2.40;;;;;;;;;;4860321;29;20384;-61
2022/11/22 01:31:04;;;;;;;5.90;2.13;;;;;;;;;;4862281;29;20073;-61
2022/11/22 01:33:30;;;;;;;4.47;2.45;;;;;;;;;;4862164;29;20069;-61
2022/11/22 01:35:57;;;;;;;5.82;1.60;;;;;;;;;;4862063;29;20049;-61
2022/11/22 01:38:23;;;;;;;7.78;1.85;;;;;;;;;;4861311;29;20084;-61
2022/11/22 01:40:50;;;;;;;9.30;2.20;;;;;;;;;;4861770;29;20049;-61
2022/11/22 01:43:17;;;;;;;6.25;1.90;;;;;;;;;;4862039;29;20121;-62
2022/11/22 01:45:45;;;;;;;7.78;2.25;;;;;;;;;;4861771;29;20057;-62
2022/11/22 01:48:12;;;;;;;4.78;2.00;;;;;;;;;;4861226;29;20049;-61
2022/11/22 01:50:39;;;;;;;6.13;2.10;;;;;;;;;;4876006;29;20052;-61
2022/11/22 01:53:08;;;;;;;7.25;2.47;;;;;;;;;;4861556;29;20068;-61
2022/11/22 01:55:35;;;;;;;8.38;2.83;;;;;;;;;;4861524;29;20042;-62
2022/11/22 01:58:01;;;;;;;7.85;2.40;;;;;;;;;;4861074;29;20061;-62
2022/11/22 02:00:27;;;;;;;8.70;2.95;;;;;;;;;;4861415;29;20086;-61
2022/11/22 02:02:56;;;;;;;8.73;2.50;;;;;;;;;;4875568;29;20052;-60
2022/11/22 02:05:24;;;;;;;7.22;2.47;;;;;;;;;;4860338;29;20049;-60
2022/11/22 02:07:55;;;;;;;10.70;2.75;;;;;;;;;;4860810;29;20053;-61
2022/11/22 02:10:23;;;;;;;10.38;3.05;;;;;;;;;;4861330;29;20049;-60
2022/11/22 02:12:50;;;;;;;12.23;2.95;;;;;;;;;;4861197;29;20045;-61
2022/11/22 02:15:17;;;;;;;12.43;3.25;;;;;;;;;;4861083;29;20114;-61
2022/11/22 02:17:43;;;;;;;7.88;2.45;;;;;;;;;;4860274;29;20041;-61
2022/11/22 02:20:10;;;;;;;10.13;2.80;;;;;;;;;;4861296;29;20048;-61
2022/11/22 02:22:44;;;;;;;12.00;2.85;;;;;;;;;;4860984;29;20102;-61
2022/11/22 02:25:19;;;;;;;11.15;2.95;;;;;;;;;;4861318;29;20049;-61
2022/11/22 02:27:47;;;;;;;12.70;3.47;;;;;;;;;;4859352;29;20102;-61
2022/11/22 02:30:13;;;;;;;16.77;3.50;;;;;;;;;;4859806;29;20045;-61
2022/11/22 02:32:40;;;;;;;13.38;2.97;;;;;;;;;;4860190;29;20049;-61
2022/11/22 02:35:23;;;;;;;12.63;2.67;;;;;;;;;;4860934;29;20113;-60
2022/11/22 02:37:55;;;;;;;12.02;2.95;;;;;;;;;;4860460;29;20495;-61
2022/11/22 02:40:22;;;;;;;15.93;3.67;;;;;;;;;;4860959;29;20061;-61
2022/11/22 02:42:51;;;;;;;15.40;3.45;;;;;;;;;;4860617;29;20518;-61
2022/11/22 02:45:18;;;;;;;14.05;3.53;;;;;;;;;;4860992;29;20053;-61
2022/11/22 02:47:44;;;;;;;16.90;3.50;;;;;;;;;;4860585;29;20053;-60
2022/11/22 02:50:11;;;;;;;15.63;2.92;;;;;;;;;;4860921;29;20053;-60
2022/11/22 02:52:37;;;;;;;15.40;3.78;;;;;;;;;;4860511;29;20091;-60
2022/11/22 02:55:03;;;;;;;15.85;2.90;;;;;;;;;;4860412;29;20049;-61
2022/11/22 02:57:30;;;;;;;13.88;3.17;;;;;;;;;;4874351;29;20526;-60
2022/11/22 02:59:56;;;;;;;14.70;4.18;;;;;;;;;;4860526;29;20041;-60
2022/11/22 03:02:23;;;;;;;12.00;2.97;;;;;;;;;;4859216;29;20041;-60
2022/11/22 03:04:49;;;;;;;12.77;2.63;;;;;;;;;;4860510;29;20514;-60
2022/11/22 03:07:16;;;;;;;10.75;2.42;;;;;;;;;;4859100;29;20050;-60
2022/11/22 03:09:42;;;;;;;10.82;3.33;;;;;;;;;;4860138;29;20046;-60
2022/11/22 03:12:09;;;;;;;14.98;2.95;;;;;;;;;;4860428;29;20046;-60
2022/11/22 03:14:35;;;;;;;16.75;4.22;;;;;;;;;;4860355;29;20041;-60
2022/11/22 03:17:02;;;;;;;11.77;3.40;;;;;;;;;;4860714;29;20049;-60
2022/11/22 03:19:28;;;;;;;14.10;3.10;;;;;;;;;;4860236;29;20045;-60
2022/11/22 03:21:55;;;;;;;9.38;2.45;;;;;;;;;;4860850;29;20053;-60
2022/11/22 03:24:22;;;;;;;15.73;3.50;;;;;;;;;;4860644;29;20061;-61
2022/11/22 03:26:48;;;;;;;12.98;2.55;;;;;;;;;;4860759;29;20082;-61
2022/11/22 03:29:17;;;;;;;9.90;2.50;;;;;;;;;;4859299;29;20419;-61
2022/11/22 03:31:44;;;;;;;8.55;2.30;;;;;;;;;;4860674;29;20053;-61
2022/11/22 03:34:11;;;;;;;10.82;2.72;;;;;;;;;;4861059;29;20041;-61
2022/11/22 03:36:37;;;;;;;13.63;2.88;;;;;;;;;;4860809;29;20619;-61
2022/11/22 03:39:04;;;;;;;11.27;2.58;;;;;;;;;;4860040;29;20089;-61
2022/11/22 03:41:30;;;;;;;12.18;2.35;;;;;;;;;;4875033;29;20045;-61
2022/11/22 03:43:56;;;;;;;14.15;2.75;;;;;;;;;;4860478;29;20042;-61
2022/11/22 03:46:23;;;;;;;12.23;3.35;;;;;;;;;;4860581;29;20051;-61
2022/11/22 03:48:49;;;;;;;15.70;3.90;;;;;;;;;;4858665;29;20053;-61
2022/11/22 03:51:16;;;;;;;14.75;3.33;;;;;;;;;;4860055;29;20131;-61
2022/11/22 03:53:42;;;;;;;12.88;2.60;;;;;;;;;;4860730;29;20061;-61
2022/11/22 03:56:09;;;;;;;12.35;3.08;;;;;;;;;;4860249;29;20050;-61
2022/11/22 03:58:35;;;;;;;14.07;3.72;;;;;;;;;;4859562;29;20588;-61
2022/11/22 04:01:01;;;;;;;18.55;2.88;;;;;;;;;;4859947;29;20042;-61
2022/11/22 04:03:28;;;;;;;15.00;3.20;;;;;;;;;;4860304;29;20049;-61
2022/11/22 04:05:54;;;;;;;12.85;2.50;;;;;;;;;;4860743;29;20050;-62
2022/11/22 04:08:21;;;;;;;20.58;3.40;;;;;;;;;;4859467;29;20475;-61
2022/11/22 04:10:48;;;;;;;9.73;2.50;;;;;;;;;;4860717;29;20050;-61
2022/11/22 04:13:15;;;;;;;17.48;3.20;;;;;;;;;;4858793;29;20426;-61
2022/11/22 04:15:41;;;;;;;9.40;2.50;;;;;;;;;;4874679;29;20051;-61
2022/11/22 04:18:08;;;;;;;18.38;3.75;;;;;;;;;;4859868;29;20054;-62
2022/11/22 04:23:20;;;;;;;11.82;3.13;;;;;;;;;;4860805;29;20110;-60
2022/11/22 04:25:48;;;;;;;16.30;3.38;;;;;;;;;;4860759;29;20053;-60
2022/11/22 04:28:15;;;;;;;9.35;2.33;;;;;;;;;;4859916;29;20110;-61
2022/11/22 04:33:27;;;;;;;10.57;2.75;;;;;;;;;;4861595;29;20052;-60
2022/11/22 04:35:54;;;;;;;17.75;2.90;;;;;;;;;;4861878;29;20063;-60
2022/11/22 04:38:21;;;;;;;13.52;2.65;;;;;;;;;;4860872;29;20105;-60
2022/11/22 04:40:47;;;;;;;12.23;2.83;;;;;;;;;;4864825;29;20053;-60
2022/11/22 04:46:09;;;;;;;9.60;2.50;;;;;;;;;;4863918;29;20049;-61
2022/11/22 04:48:36;;;;;;;18.33;3.00;;;;;;;;;;4861862;29;20125;-61
2022/11/22 04:53:48;;;;;;;13.05;3.00;;;;;;;;;;4863880;29;20061;-61
2022/11/22 04:56:14;;;;;;;10.73;2.00;;;;;;;;;;4863178;29;20046;-63
2022/11/22 04:58:40;;;;;;;9.45;2.33;;;;;;;;;;4862022;29;20102;-61
2022/11/22 05:01:08;;;;;;;11.85;2.50;;;;;;;;;;5260242;23;20313;31
2022/11/22 05:03:35;;;;;;;16.10;2.72;;;;;;;;;;4913230;29;20083;-61
2022/11/22 05:06:02;;;;;;;10.30;2.60;;;;;;;;;;4918572;29;20051;-61
2022/11/22 05:08:28;;;;;;;10.32;2.60;;;;;;;;;;4918042;29;20448;-61
2022/11/22 05:10:58;;;;;;;9.02;3.45;;;;;;;;;;4917305;29;20509;-61
2022/11/22 05:13:29;;;;;;;13.20;2.28;;;;;;;;;;4900934;29;20413;-61
2022/11/22 05:15:56;;;;;;;15.07;2.47;;;;;;;;;;4898334;29;20474;-61
2022/11/22 05:18:23;;;;;;;12.15;2.85;;;;;;;;;;4913497;29;20044;-61
2022/11/22 05:20:50;;;;;;;12.95;2.78;;;;;;;;;;4898382;29;20048;-61
2022/11/22 05:26:02;;;;;;;11.57;1.92;;;;;;;;;;4899407;29;20454;-60
2022/11/22 05:28:32;;;;;;;6.78;2.53;;;;;;;;;;4898748;29;20063;-59
2022/11/22 05:31:04;;;;;;;17.92;4.03;;;;;;;;;;4899295;29;20049;-60
2022/11/22 05:33:30;;;;;;;8.38;2.35;;;;;;;;;;4899122;29;20497;-60
2022/11/22 05:35:59;;;;;;;12.38;2.40;;;;;;;;;;4913946;29;20048;-60
2022/11/22 05:38:25;;;;;;;16.55;2.42;;;;;;;;;;4899243;29;20162;-60
2022/11/22 05:40:52;;;;;;;12.20;2.85;;;;;;;;;;4899301;29;20041;-60
2022/11/22 05:43:18;;;;;;;10.23;1.95;;;;;;;;;;4899516;29;20041;-59
2022/11/22 05:45:44;;;;;;;10.95;2.05;;;;;;;;;;4899354;29;20064;-61
2022/11/22 05:48:11;;;;;;;8.25;1.80;;;;;;;;;;4899059;29;20386;-59
2022/11/22 05:50:37;;;;;;;9.07;2.20;;;;;;;;;;4898583;29;20052;-61
2022/11/22 05:53:04;;;;;;;6.43;2.30;;;;;;;;;;4899192;29;20055;-61
2022/11/22 05:55:31;;;;;;;13.10;3.13;;;;;;;;;;4899189;29;20040;-61
2022/11/22 05:58:00;;;;;;;9.85;2.10;;;;;;;;;;4898803;29;20375;-61
2022/11/22 06:00:28;;;;;;;5.53;2.33;;;;;;;;;;4898816;29;20040;-61
2022/11/22 06:03:02;;;;;;;10.05;1.95;;;;;;;;;;4898689;29;20044;-61
2022/11/22 06:05:28;;;;;;;6.75;2.10;;;;;;;;;;4899028;29;20049;-61
2022/11/22 06:07:59;;;;;;;10.80;2.50;;;;;;;;;;4897280;29;20093;-61
2022/11/22 06:10:26;;;;;;;7.75;1.60;;;;;;;;;;4899158;29;20382;-61
2022/11/22 06:12:52;;;;;;;8.90;2.30;;;;;;;;;;4899187;29;20104;-61
2022/11/22 06:15:19;;;;;;;10.75;2.33;;;;;;;;;;4897771;29;20057;-61
2022/11/22 06:17:45;;;;;;;7.70;2.10;;;;;;;;;;4898527;29;20087;-62
2022/11/22 06:20:12;;;;;;;10.35;1.85;;;;;;;;;;4899013;29;20048;-62
2022/11/22 06:22:38;;;;;;;12.10;2.50;;;;;;;;;;4898864;29;20056;-61
2022/11/22 06:25:05;;;;;;;8.45;1.95;;;;;;;;;;4898688;29;20040;-62
2022/11/22 06:27:31;;;;;;;7.22;2.13;;;;;;;;;;4898258;29;20044;-61
2022/11/22 06:29:57;;;;;;;9.63;2.50;;;;;;;;;;4898689;29;20048;-62
2022/11/22 06:32:24;;;;;;;12.95;2.65;;;;;;;;;;4898284;29;20437;-61
2022/11/22 06:34:50;;;;;;;10.43;2.35;;;;;;;;;;4898467;29;20049;-62
2022/11/22 06:37:16;;;;;;;12.35;3.13;;;;;;;;;;4896738;29;20052;-62
2022/11/22 06:39:43;;;;;;;8.48;2.45;;;;;;;;;;4897295;29;20498;-62
2022/11/22 06:42:09;;;;;;;15.98;3.25;;;;;;;;;;4898059;29;20505;-63
2022/11/22 06:44:35;;;;;;;13.35;3.03;;;;;;;;;;4898062;29;20575;-62
2022/11/22 06:47:02;;;;;;;9.52;2.30;;;;;;;;;;4881206;29;20498;-62
2022/11/22 06:49:28;;;;;;;10.50;3.10;;;;;;;;;;4897266;29;20062;-62
2022/11/22 06:51:55;;;;;;;12.57;2.53;;;;;;;;;;4897765;29;20051;-62
2022/11/22 06:54:21;;;;;;;8.80;2.90;;;;;;;;;;4897735;29;20076;-62
2022/11/22 06:56:48;;;;;;;8.57;3.20;;;;;;;;;;4897906;29;20041;-61
2022/11/22 06:59:14;;;;;;;11.52;2.95;;;;;;;;;;4897300;29;20088;-61
2022/11/22 07:01:40;;;;;;;10.20;2.55;;;;;;;;;;4896415;29;20373;-62
2022/11/22 07:04:07;;;;;;;11.05;2.30;;;;;;;;;;4911280;29;20525;-62
2022/11/22 07:06:34;;;;;;;10.82;3.53;;;;;;;;;;4897481;29;20048;-62
2022/11/22 07:09:01;;;;;;;12.05;2.33;;;;;;;;;;4897018;29;20101;-62
2022/11/22 07:11:29;;;;;;;10.68;2.55;;;;;;;;;;4897579;29;20052;-61
2022/11/22 07:13:56;;;;;;;14.23;3.28;;;;;;;;;;4897542;29;20052;-62
2022/11/22 07:16:30;;;;;;;10.55;1.90;;;;;;;;;;4897564;29;20144;-62
2022/11/22 07:18:57;;;;;;;8.73;1.75;;;;;;;;;;4896844;29;20044;-61
2022/11/22 07:21:24;;;;;;;10.65;2.78;;;;;;;;;;4897533;29;20044;-62
2022/11/22 07:23:51;;;;;;;8.63;1.73;;;;;;;;;;4911525;29;20523;-61
2022/11/22 07:26:18;;;;;;;8.40;2.10;;;;;;;;;;4897682;29;20060;-61
2022/11/22 07:28:45;;;;;;;6.75;1.80;;;;;;;;;;4896656;29;20056;-61
2022/11/22 07:31:13;;;;;;;7.38;2.00;;;;;;;;;;4897014;29;20044;-61
2022/11/22 07:33:39;;;;;;;7.68;2.00;;;;;;;;;;4897103;29;20056;-61
2022/11/22 07:36:07;;;;;;;7.05;1.88;;;;;;;;;;4897004;29;20048;-61
2022/11/22 07:38:34;;;;;;;12.20;2.10;;;;;;;;;;4896514;29;20557;-61
2022/11/22 07:41:01;;;;;;;5.78;2.10;;;;;;;;;;4897111;29;20040;-61
2022/11/22 07:43:27;;;;;;;9.85;2.17;;;;;;;;;;4896958;29;20418;-61
2022/11/22 07:45:57;;;;;;;8.43;2.15;;;;;;;;;;4896865;29;20096;-61
2022/11/22 07:48:23;;;;;;;7.53;2.40;;;;;;;;;;4896503;29;20041;-60
2022/11/22 07:50:50;;;;;;;9.75;2.67;;;;;;;;;;4895858;29;20497;-61
2022/11/22 07:53:16;;;;;;;13.77;2.80;;;;;;;;;;4896794;29;20055;-61
2022/11/22 07:55:42;;;;;;;9.77;2.35;;;;;;;;;;4897299;29;20430;-61
2022/11/22 07:58:09;;;;;;;10.35;2.45;;;;;;;;;;4896208;29;20044;-62
2022/11/22 08:00:35;;;;;;;10.05;2.58;;;;;;;;;;4896639;29;20101;-62
2022/11/22 08:03:02;;;;;;;9.10;2.45;;;;;;;;;;4896776;29;20045;-61
2022/11/22 08:05:28;;;;;;;13.15;2.95;;;;;;;;;;4896863;29;20110;-61
2022/11/22 08:07:54;;;;;;;11.05;3.40;;;;;;;;;;4896265;29;20056;-62
2022/11/22 08:10:22;;;;;;;5.75;2.85;;;;;;;;;;4896836;29;20052;-61
2022/11/22 08:12:48;;;;;;;6.50;2.17;;;;;;;;;;4911163;29;20059;-61
2022/11/22 08:15:15;;;;;;;8.60;3.13;;;;;;;;;;4899490;29;20426;-62
2022/11/22 08:17:42;;;;;;;14.20;2.88;;;;;;;;;;4899923;29;20052;-61
2022/11/22 08:20:09;;;;;;;7.88;2.30;;;;;;;;;;4914968;29;20068;-62
2022/11/22 08:22:39;;;;;;;12.52;2.20;;;;;;;;;;4914927;29;20174;-61
2022/11/22 08:25:11;;;;;;;7.90;1.95;;;;;;;;;;4900366;29;20040;-61
2022/11/22 08:27:40;;;;;;;7.45;2.50;;;;;;;;;;4899975;29;20059;-62
2022/11/22 08:30:08;;;;;;;9.50;2.50;;;;;;;;;;4899968;29;20055;-62
2022/11/22 08:32:34;;;;;;;12.82;3.22;;;;;;;;;;4900190;29;20055;-62
2022/11/22 08:35:01;;;;;;;11.95;2.60;;;;;;;;;;4900280;29;20462;-62
2022/11/22 08:37:27;;;;;;;12.18;3.05;;;;;;;;;;4898330;29;20084;-62
2022/11/22 08:39:54;;;;;;;8.30;1.85;;;;;;;;;;4900131;29;20037;-61
2022/11/22 08:42:21;;;;;;;6.60;2.05;;;;;;;;;;4900734;29;20096;-61
2022/11/22 08:44:47;;;;;;;6.85;2.03;;;;;;;;;;4914714;29;20040;-60
2022/11/22 08:47:13;;;;;;;8.45;2.20;;;;;;;;;;4900046;29;20044;-61
2022/11/22 08:49:40;;;;;;;8.80;3.28;;;;;;;;;;4899785;29;20087;-60
2022/11/22 08:52:06;;;;;;;6.32;1.42;;;;;;;;;;4900092;29;20096;-60
2022/11/22 08:54:32;;;;;;;12.13;4.03;;;;;;;;;;4899802;29;20561;-60
2022/11/22 08:57:03;;;;;;;9.77;2.40;;;;;;;;;;4900095;29;20148;-60
2022/11/22 08:59:30;;;;;;;3.80;1.60;;;;;;;;;;4899351;29;20415;-60
2022/11/22 09:01:56;;;;;;;9.38;2.65;;;;;;;;;;4899689;29;20075;-60
2022/11/22 09:04:23;;;;;;;8.38;2.28;;;;;;;;;;4900130;29;20041;-60
2022/11/22 09:06:49;;;;;;;6.45;2.22;;;;;;;;;;4899798;29;20049;-60
2022/11/22 09:09:36;;;;;;;9.80;2.05;;;;;;;;;;4899146;29;20079;-60
2022/11/22 09:12:08;;;;;;;5.80;1.85;;;;;;;;;;4899601;29;20498;-60
2022/11/22 09:14:35;;;;;;;8.10;1.95;;;;;;;;;;4898191;29;20055;-61
2022/11/22 09:17:01;;;;;;;7.78;1.90;;;;;;;;;;4899460;29;20055;-61
2022/11/22 09:19:28;;;;;;;10.10;1.90;;;;;;;;;;4899236;29;20092;-61
2022/11/22 09:21:55;;;;;;;7.97;1.73;;;;;;;;;;4898225;29;20254;-61
2022/11/22 09:24:21;;;;;;;8.63;1.95;;;;;;;;;;4898224;29;20541;-60
2022/11/22 09:26:48;;;;;;;12.50;3.33;;;;;;;;;;4898337;29;20112;-60
2022/11/22 09:29:14;;;;;;;7.47;1.95;;;;;;;;;;4899053;29;20044;-60
2022/11/22 09:31:41;;;;;;;14.45;3.20;;;;;;;;;;4899428;29;20046;-60
2022/11/22 09:34:07;;;;;;;7.72;2.40;;;;;;;;;;4899426;29;20413;-60
2022/11/22 09:36:34;;;;;;;6.88;1.95;;;;;;;;;;4899378;29;20045;-60
2022/11/22 09:39:01;;;;;;;7.88;1.90;;;;;;;;;;4898816;29;20045;-60
2022/11/22 09:41:38;;;;;;;10.55;1.90;;;;;;;;;;4899129;29;20517;-60
2022/11/22 09:44:10;;;;;;;10.93;2.30;;;;;;;;;;4899220;29;20545;-60
2022/11/22 09:46:48;;;;;;;8.48;2.00;;;;;;;;;;4899205;29;20501;-61
2022/11/22 09:49:14;;;;;;;10.95;2.00;;;;;;;;;;4898681;29;20044;-61
2022/11/22 09:52:01;;;;;;;7.60;2.20;;;;;;;;;;4897731;29;20048;-61
2022/11/22 09:54:32;;;;;;;6.80;1.73;;;;;;;;;;4888879;29;20533;-61
2022/11/22 09:57:01;;;;;;;17.45;2.28;;;;;;;;;;4898792;29;20100;-60
2022/11/22 09:59:30;;;;;;;7.82;1.70;;;;;;;;;;4912773;29;20048;-59
2022/11/22 10:02:06;;;;;;;11.30;2.30;;;;;;;;;;4898626;29;20044;-60
2022/11/22 10:04:47;;;;;;;7.25;1.90;;;;;;;;;;4898683;29;20041;-60
2022/11/22 10:07:15;;;;;;;8.63;2.35;;;;;;;;;;4898667;29;20195;-60
2022/11/22 10:09:49;;;;;;;5.43;1.70;;;;;;;;;;4898329;29;20107;-61
2022/11/22 10:12:16;;;;;;;9.32;2.22;;;;;;;;;;4898637;29;20053;-61
2022/11/22 10:14:51;;;;;;;8.68;2.38;;;;;;;;;;4898637;29;20071;-61
2022/11/22 10:17:27;;;;;;;7.20;2.25;;;;;;;;;;4898087;29;20494;-61
2022/11/22 10:20:10;;;;;;;6.32;1.63;;;;;;;;;;4898469;29;20668;-60
2022/11/22 10:22:37;;;;;;;10.98;2.70;;;;;;;;;;4898451;29;20043;-61
2022/11/22 10:25:16;;;;;;;7.97;1.85;;;;;;;;;;4898411;29;20041;-61
2022/11/22 10:27:43;;;;;;;9.23;1.90;;;;;;;;;;4912444;29;20089;-61
2022/11/22 10:30:15;;;;;;;7.13;2.35;;;;;;;;;;4898458;29;20063;-61
2022/11/22 10:32:55;;;;;;;5.65;2.00;;;;;;;;;;4896870;29;20096;-60
2022/11/22 10:35:57;;;;;;;6.75;1.73;;;;;;;;;;4898235;29;20044;-61
2022/11/22 10:38:38;;;;;;;7.82;1.83;;;;;;;;;;4839562;29;20529;-61
2022/11/22 10:41:04;;;;;;;3.55;1.40;;;;;;;;;;4889107;29;20044;-61
2022/11/22 10:43:36;;;;;;;9.25;2.08;;;;;;;;;;4898164;29;20040;-60
2022/11/22 10:46:09;;;;;;;5.72;1.58;;;;;;;;;;4897002;29;20041;-60
2022/11/22 10:48:38;;;;;;;4.80;1.42;;;;;;;;;;4897646;29;20053;-61
2022/11/22 10:51:24;;;;;;;7.60;2.05;;;;;;;;;;4898464;29;20049;-61
2022/11/22 10:54:02;;;;;;;5.97;2.05;;;;;;;;;;4898073;29;20064;-60
2022/11/22 10:56:45;;;;;;;6.82;1.70;;;;;;;;;;4898086;29;20045;-61
2022/11/22 10:59:22;;;;;;;8.23;1.83;;;;;;;;;;4897880;29;20040;-60
2022/11/22 11:01:58;;;;;;;6.10;2.25;;;;;;;;;;4897568;29;20048;-60
2022/11/22 11:04:28;;;;;;;5.95;2.30;;;;;;;;;;4898240;29;20045;-61
2022/11/22 11:06:56;;;;;;;3.80;1.55;;;;;;;;;;4898139;29;20045;-61
2022/11/22 11:09:37;;;;;;;6.82;3.40;;;;;;;;;;4897210;29;20059;-61
2022/11/22 11:12:28;;;;;;;6.43;1.95;;;;;;;;;;4897784;29;20128;-60
2022/11/22 11:14:56;;;;;;;5.65;2.03;;;;;;;;;;4897885;29;20044;-62
2022/11/22 11:17:25;;;;;;;3.15;1.67;;;;;;;;;;4911962;29;20041;-61
2022/11/22 11:19:53;;;;;;;7.82;2.25;;;;;;;;;;4897933;29;20067;-61
2022/11/22 11:22:22;;;;;;;6.55;1.90;;;;;;;;;;4896177;29;20537;-61
2022/11/22 11:25:29;;;;;;;5.85;1.70;;;;;;;;;;4897287;29;20462;-62
2022/11/22 11:27:56;;;;;;;5.68;1.90;;;;;;;;;;4896802;29;20063;-61
2022/11/22 11:30:23;;;;;;;5.40;1.60;;;;;;;;;;4897446;29;20052;-61
2022/11/22 11:32:51;;;;;;;3.97;1.67;;;;;;;;;;4897589;29;20104;-61
2022/11/22 11:35:18;;;;;;;6.60;2.35;;;;;;;;;;4898297;29;20052;-62
2022/11/22 11:37:45;;;;;;;4.15;1.30;;;;;;;;;;4897158;29;20108;-61
2022/11/22 11:40:28;;;;;;;6.05;1.95;;;;;;;;;;4897186;29;20041;-61
2022/11/22 11:43:13;;;;;;;6.82;2.22;;;;;;;;;;4897202;29;20044;-60
2022/11/22 11:45:40;;;;;;;6.28;1.45;;;;;;;;;;4897036;29;20044;-61
2022/11/22 11:48:24;;;;;;;2.70;1.48;;;;;;;;;;4896531;29;20048;-61
2022/11/22 11:50:50;;;;;;;4.13;2.00;;;;;;;;;;4897087;29;20056;-61
2022/11/22 11:53:24;;;;;;;3.85;1.27;;;;;;;;;;4896961;29;20100;-61
2022/11/22 11:55:51;;;;;;;6.82;2.25;;;;;;;;;;4897089;29;20063;-61
2022/11/22 11:58:23;;;;;;;8.75;2.70;;;;;;;;;;4896347;29;20458;-62
2022/11/22 12:00:49;;;;;;;5.68;2.28;;;;;;;;;;4895779;29;20399;-61
2022/11/22 12:03:18;;;;;;;5.20;1.80;;;;;;;;;;4896774;29;20048;-62
2022/11/22 12:05:44;;;;;;;4.22;1.65;;;;;;;;;;4911989;29;20081;-59
2022/11/22 12:08:25;;;;;;;6.80;2.00;;;;;;;;;;4896430;29;20063;-60
2022/11/22 12:10:58;;;;;;;8.25;1.77;;;;;;;;;;4897253;29;20052;-59
2022/11/22 12:13:32;;;;;;;9.98;2.25;;;;;;;;;;4897129;29;20052;-59
2022/11/22 12:16:12;;;;;;;7.50;1.90;;;;;;;;;;4896957;29;20057;-62
2022/11/22 12:18:47;;;;;;;8.15;2.15;;;;;;;;;;4896500;29;20047;-62
2022/11/22 12:21:24;;;;;;;6.20;2.28;;;;;;;;;;4897188;29;20053;-61
2022/11/22 12:23:56;;;;;;;4.88;2.03;;;;;;;;;;4895633;29;20532;-62
2022/11/22 12:26:43;;;;;;;8.05;1.95;;;;;;;;;;4896987;29;20501;-62
2022/11/22 12:29:11;;;;;;;7.53;2.20;;;;;;;;;;4896320;29;20059;-62
2022/11/22 12:31:53;;;;;;;6.90;2.00;;;;;;;;;;4896895;29;20048;-61
2022/11/22 12:34:22;;;;;;;8.40;2.05;;;;;;;;;;4896859;29;20045;-62
2022/11/22 12:36:55;;;;;;;6.32;1.95;;;;;;;;;;4896726;29;20048;-59
2022/11/22 12:39:25;;;;;;;5.17;1.70;;;;;;;;;;4896282;29;20037;-59
2022/11/22 12:41:58;;;;;;;3.97;1.95;;;;;;;;;;4896617;29;20279;-60
2022/11/22 12:44:24;;;;;;;5.60;1.92;;;;;;;;;;4896432;29;20045;-59
2022/11/22 12:46:53;;;;;;;10.38;2.38;;;;;;;;;;4896663;29;20049;-59
2022/11/22 12:49:30;;;;;;;8.63;1.88;;;;;;;;;;4896099;29;20052;-60
2022/11/22 12:51:56;;;;;;;3.75;1.80;;;;;;;;;;4896304;29;20494;-60
2022/11/22 12:54:26;;;;;;;6.55;1.67;;;;;;;;;;4896584;29;20052;-60
2022/11/22 12:56:54;;;;;;;8.27;2.63;;;;;;;;;;4896820;29;20509;-60
2022/11/22 12:59:31;;;;;;;4.78;1.95;;;;;;;;;;4910295;29;20055;-61
2022/11/22 13:02:03;;;;;;;8.07;2.03;;;;;;;;;;4899795;29;20056;-60
2022/11/22 13:04:49;;;;;;;6.20;2.17;;;;;;;;;;4900519;29;20052;-61
2022/11/22 13:07:22;;;;;;;6.63;2.08;;;;;;;;;;4900062;29;20047;-61
2022/11/22 13:09:57;;;;;;;7.00;2.47;;;;;;;;;;4900207;29;20108;-61
2022/11/22 13:12:29;;;;;;;5.47;1.60;;;;;;;;;;4900053;29;20045;-61
2022/11/22 13:14:57;;;;;;;6.05;2.03;;;;;;;;;;4900239;29;20104;-61
2022/11/22 13:17:25;;;;;;;6.00;1.85;;;;;;;;;;4899864;29;20044;-61
2022/11/22 13:20:04;;;;;;;5.80;2.03;;;;;;;;;;4914526;29;20072;-60
2022/11/22 13:22:43;;;;;;;8.77;3.00;;;;;;;;;;4899755;29;20499;-61
2022/11/22 13:25:18;;;;;;;8.13;2.80;;;;;;;;;;4898315;29;20100;-60
2022/11/22 13:27:47;;;;;;;9.35;3.03;;;;;;;;;;4898193;29;20530;-61
2022/11/22 13:30:17;;;;;;;8.93;2.38;;;;;;;;;;4897776;29;20049;-61
2022/11/22 13:32:46;;;;;;;6.55;2.00;;;;;;;;;;4899349;29;20104;-61
2022/11/22 13:35:12;;;;;;;8.10;2.42;;;;;;;;;;4899276;29;20104;-61
2022/11/22 13:37:40;;;;;;;6.18;2.38;;;;;;;;;;4898634;29;20049;-61
2022/11/22 13:40:08;;;;;;;6.85;2.65;;;;;;;;;;4899202;29;20052;-61
2022/11/22 13:42:35;;;;;;;7.07;2.65;;;;;;;;;;4898230;29;20052;-61
2022/11/22 13:45:06;;;;;;;6.05;2.63;;;;;;;;;;4913475;29;20064;-61
2022/11/22 13:47:34;;;;;;;12.43;3.58;;;;;;;;;;4897742;29;20083;-61
2022/11/22 13:50:01;;;;;;;4.80;2.17;;;;;;;;;;4897866;29;20629;-61
2022/11/22 13:52:47;;;;;;;6.65;2.45;;;;;;;;;;4897943;29;20567;-61
2022/11/22 13:55:33;;;;;;;7.13;2.65;;;;;;;;;;4898718;29;20053;-61
2022/11/22 13:58:22;;;;;;;6.50;1.85;;;;;;;;;;4911988;29;20454;-61
2022/11/22 14:00:53;;;;;;;4.43;1.70;;;;;;;;;;4899030;29;20047;-61
2022/11/22 14:03:19;;;;;;;2.53;1.52;;;;;;;;;;4913824;29;20049;-61
2022/11/22 14:05:50;;;;;;;4.57;1.48;;;;;;;;;;4899113;29;20486;-60
2022/11/22 14:08:34;;;;;;;3.10;1.40;;;;;;;;;;4913038;29;20151;-60
2022/11/22 14:11:07;;;;;;;3.60;2.47;;;;;;;;;;4898970;29;20454;-61
2022/11/22 14:13:52;;;;;;;15.63;6.45;;;;;;;;;;4897160;29;20050;-61
2022/11/22 14:16:21;;;;;;;41.70;15.75;;;;;;;;;;4913171;29;20517;-61
2022/11/22 14:18:55;;;;;;;11.15;5.68;;;;;;;;;;4898164;29;20096;-61
2022/11/22 14:21:24;;;;;;;2.53;1.77;;;;;;;;;;4898719;29;20096;-60
2022/11/22 14:24:02;;;;;;;2.63;2.05;;;;;;;;;;4898688;29;20048;-61
2022/11/22 14:26:31;;;;;;;2.15;1.50;;;;;;;;;;4898900;29;20041;-61
2022/11/22 14:29:09;;;;;;;2.35;1.20;;;;;;;;;;4897345;29;20417;-60
2022/11/22 14:31:36;;;;;;;6.80;1.42;;;;;;;;;;4897635;29;20128;-61
2022/11/22 14:34:17;;;;;;;3.13;1.20;;;;;;;;;;4898294;29;20049;-61
2022/11/22 14:36:44;;;;;;;1.70;1.10;;;;;;;;;;4898190;29;20509;-61
2022/11/22 14:39:30;;;;;;;3.33;1.30;;;;;;;;;;4897542;29;20049;-61
2022/11/22 14:41:59;;;;;;;1.77;1.40;;;;;;;;;;4896967;29;20081;-61
2022/11/22 14:44:30;;;;;;;2.75;1.05;;;;;;;;;;4898733;29;20044;-61
2022/11/22 14:47:02;;;;;;;3.75;2.22;;;;;;;;;;4898076;29;20040;-61
2022/11/22 14:49:34;;;;;;;1.45;1.00;;;;;;;;;;4912200;29;20055;-60
2022/11/22 14:52:01;;;;;;;5.40;1.33;;;;;;;;;;4898110;29;20048;-61
2022/11/22 14:54:32;;;;;;;2.45;0.95;;;;;;;;;;4912450;29;20048;-61
2022/11/22 14:57:00;;;;;;;1.75;1.15;;;;;;;;;;4898761;29;20056;-61
2022/11/22 14:59:39;;;;;;;1.88;0.73;;;;;;;;;;4897409;29;20055;-61
2022/11/22 15:02:08;;;;;;;6.28;1.92;;;;;;;;;;4897762;29;20068;-60
2022/11/22 15:04:35;;;;;;;4.38;1.13;;;;;;;;;;4897773;29;20045;-61